Time;durP1;ratioP1;P1;durP2;ratioP2;P2;SDS_P1;SDS_P2;PMS_P1;PMS_P2;Temp;Humidity;BMP_temperature;BMP_pressure;BME280_temperature;BME280_humidity;BME280_pressure;Samples;Min_cycle;Max_cycle;Signal;HPM_P1;HPM_P2
2023/03/23 00:01:26;;;;;;;7.68;5.93;;;9.80;99.90;;;;;;5021242;28;20132;-59
2023/03/23 00:03:53;;;;;;;8.65;6.18;;;9.80;99.90;;;;;;5024525;28;20025;-65
2023/03/23 00:06:19;;;;;;;8.52;6.47;;;9.80;99.90;;;;;;5020909;28;20025;-59
2023/03/23 00:08:49;;;;;;;9.35;6.30;;;9.80;99.90;;;;;;5018787;28;20759;-62
2023/03/23 00:11:18;;;;;;;12.43;6.57;;;9.80;99.90;;;;;;5021877;28;20424;-60
2023/03/23 00:13:46;;;;;;;8.25;6.40;;;9.80;99.90;;;;;;5024812;28;20026;-62
2023/03/23 00:16:18;;;;;;;10.25;7.00;;;9.80;99.90;;;;;;5023009;28;20061;-60
2023/03/23 00:18:45;;;;;;;9.27;6.75;;;9.80;99.90;;;;;;5020297;28;20026;-62
2023/03/23 00:21:11;;;;;;;10.32;7.00;;;9.80;99.90;;;;;;5024751;28;20067;-61
2023/03/23 00:23:38;;;;;;;10.20;8.00;;;9.80;99.90;;;;;;5017641;28;20022;-61
2023/03/23 00:26:03;;;;;;;10.18;7.28;;;9.80;99.90;;;;;;5016386;28;20113;-61
2023/03/23 00:28:29;;;;;;;8.50;7.00;;;9.80;99.90;;;;;;5018120;28;20101;-61
2023/03/23 00:31:05;;;;;;;12.68;8.35;;;9.80;99.90;;;;;;5016979;28;20535;-61
2023/03/23 00:33:37;;;;;;;9.90;7.70;;;9.80;99.90;;;;;;5020396;28;20546;-60
2023/03/23 00:36:13;;;;;;;9.85;8.88;;;9.80;99.90;;;;;;5021382;28;20109;-60
2023/03/23 00:38:41;;;;;;;11.32;8.73;;;9.80;99.90;;;;;;5026774;28;20034;-62
2023/03/23 00:41:08;;;;;;;10.27;7.80;;;9.80;99.90;;;;;;5023170;28;20033;-59
2023/03/23 00:43:36;;;;;;;9.75;8.75;;;9.80;99.90;;;;;;5014056;28;20117;-61
2023/03/23 00:46:08;;;;;;;12.30;8.73;;;9.80;99.90;;;;;;5013367;28;20131;-60
2023/03/23 00:48:35;;;;;;;10.95;8.82;;;9.80;99.90;;;;;;5016761;28;20084;-60
2023/03/23 00:51:05;;;;;;;10.38;8.88;;;9.80;99.90;;;;;;5019170;28;20018;-59
2023/03/23 00:53:32;;;;;;;14.35;9.52;;;9.80;99.90;;;;;;5018261;28;20106;-61
2023/03/23 00:55:57;;;;;;;11.20;9.85;;;9.80;99.90;;;;;;5030328;28;20025;-61
2023/03/23 00:58:23;;;;;;;13.38;8.82;;;9.80;99.90;;;;;;5015959;28;20092;-62
2023/03/23 01:00:48;;;;;;;12.70;9.73;;;9.80;99.90;;;;;;5011187;28;20097;-59
2023/03/23 01:03:17;;;;;;;12.57;10.82;;;9.80;99.90;;;;;;5018396;28;20034;-62
2023/03/23 01:05:46;;;;;;;12.23;9.85;;;9.80;99.90;;;;;;5022123;28;20025;-62
2023/03/23 01:08:13;;;;;;;13.60;10.25;;;9.80;99.90;;;;;;5023305;28;20097;-62
2023/03/23 01:10:38;;;;;;;13.50;10.20;;;9.80;99.90;;;;;;5019370;28;20116;-59
2023/03/23 01:13:04;;;;;;;14.57;10.63;;;9.80;99.90;;;;;;5018449;28;20120;-60
2023/03/23 01:15:30;;;;;;;12.88;10.45;;;9.80;99.90;;;;;;5014692;28;20067;-61
2023/03/23 01:17:57;;;;;;;12.52;10.30;;;9.80;99.90;;;;;;5015089;28;20021;-62
2023/03/23 01:20:24;;;;;;;13.45;10.38;;;9.80;99.90;;;;;;5023302;28;20121;-61
2023/03/23 01:22:50;;;;;;;12.98;10.25;;;9.80;99.90;;;;;;5006220;28;20030;-62
2023/03/23 01:25:15;;;;;;;12.75;10.55;;;9.80;99.90;;;;;;5009991;28;20373;-62
2023/03/23 01:27:41;;;;;;;12.50;9.55;;;9.80;99.90;;;;;;5011883;28;20022;-60
2023/03/23 01:30:11;;;;;;;14.18;11.18;;;9.80;99.90;;;;;;5020957;28;20388;-62
2023/03/23 01:32:37;;;;;;;12.35;10.63;;;9.80;99.90;;;;;;5017716;28;20034;-61
2023/03/23 01:35:03;;;;;;;11.43;9.85;;;9.80;99.90;;;;;;5007097;28;20048;-61
2023/03/23 01:37:31;;;;;;;12.70;10.15;;;9.80;99.90;;;;;;5018833;28;20488;-60
2023/03/23 01:39:57;;;;;;;11.50;10.00;;;9.80;99.90;;;;;;5014943;28;20029;-62
2023/03/23 01:42:24;;;;;;;15.60;10.15;;;9.80;99.90;;;;;;5017812;28;20151;-62
2023/03/23 01:44:50;;;;;;;13.15;10.63;;;9.80;99.90;;;;;;5010990;28;20512;-59
2023/03/23 01:47:18;;;;;;;12.52;10.43;;;9.80;99.90;;;;;;5018049;28;20120;-60
2023/03/23 01:49:47;;;;;;;13.98;10.60;;;9.80;99.90;;;;;;5021192;28;20480;-61
2023/03/23 01:52:23;;;;;;;14.00;10.57;;;9.80;99.90;;;;;;5021725;28;20030;-62
2023/03/23 01:54:51;;;;;;;14.60;11.73;;;9.80;99.90;;;;;;5023668;28;20107;-62
2023/03/23 01:57:19;;;;;;;14.10;10.52;;;9.90;99.90;;;;;;5015678;28;20106;-63
2023/03/23 01:59:50;;;;;;;15.68;11.93;;;9.90;99.90;;;;;;5013469;28;20280;-63
2023/03/23 02:02:17;;;;;;;12.57;10.48;;;9.90;99.90;;;;;;5014982;28;20048;-61
2023/03/23 02:04:44;;;;;;;14.45;11.32;;;9.90;99.90;;;;;;5011541;28;20052;-61
2023/03/23 02:07:13;;;;;;;14.55;11.55;;;9.90;99.90;;;;;;5017313;28;20450;-60
2023/03/23 02:09:39;;;;;;;14.20;11.35;;;9.80;99.90;;;;;;5016469;28;20053;-61
2023/03/23 02:12:05;;;;;;;13.98;10.98;;;9.90;99.90;;;;;;5024605;28;20068;-61
2023/03/23 02:14:31;;;;;;;15.60;12.20;;;9.80;99.90;;;;;;5018396;28;20057;-61
2023/03/23 02:17:07;;;;;;;12.25;10.95;;;9.80;99.90;;;;;;5022340;28;20068;-60
2023/03/23 02:19:54;;;;;;;13.77;12.25;;;9.90;99.90;;;;;;5019159;28;20083;-62
2023/03/23 02:22:46;;;;;;;14.10;12.20;;;9.90;99.90;;;;;;5018058;28;20101;-62
2023/03/23 02:25:18;;;;;;;14.73;11.65;;;9.90;99.90;;;;;;5018773;28;20022;-61
2023/03/23 02:28:17;;;;;;;15.27;12.68;;;9.90;99.90;;;;;;5026610;28;20163;-63
2023/03/23 02:31:05;;;;;;;15.55;12.50;;;9.90;99.90;;;;;;5034046;28;20057;-61
2023/03/23 02:33:48;;;;;;;14.63;11.38;;;9.90;99.90;;;;;;5022573;28;20068;-61
2023/03/23 02:36:21;;;;;;;15.43;11.63;;;9.90;99.90;;;;;;5026661;28;20026;-60
2023/03/23 02:38:58;;;;;;;15.23;11.73;;;9.90;99.90;;;;;;5028132;28;20033;-63
2023/03/23 02:41:30;;;;;;;12.15;10.90;;;9.90;99.90;;;;;;5025830;28;20075;-62
2023/03/23 02:43:57;;;;;;;14.50;11.65;;;9.90;99.90;;;;;;5015182;28;20017;-61
2023/03/23 02:46:23;;;;;;;14.52;11.35;;;9.90;99.90;;;;;;5028352;28;20032;-61
2023/03/23 02:48:51;;;;;;;13.30;11.27;;;9.90;99.90;;;;;;5025251;28;20391;-61
2023/03/23 02:51:20;;;;;;;12.32;10.52;;;9.90;99.90;;;;;;5029897;28;20013;-62
2023/03/23 02:53:47;;;;;;;14.48;11.77;;;9.90;99.90;;;;;;5024385;28;20061;-61
2023/03/23 02:56:14;;;;;;;11.48;10.27;;;9.90;99.90;;;;;;5025320;28;20026;-59
2023/03/23 02:58:40;;;;;;;13.15;11.23;;;9.90;99.90;;;;;;5021833;28;20028;-61
2023/03/23 03:01:35;;;;;;;15.55;12.05;;;10.00;99.90;;;;;;5018602;28;20084;-60
2023/03/23 03:04:06;;;;;;;15.13;10.95;;;10.00;99.90;;;;;;5011541;28;20404;-61
2023/03/23 03:06:59;;;;;;;15.02;11.02;;;10.00;99.90;;;;;;5020009;28;20037;-61
2023/03/23 03:10:08;;;;;;;12.13;10.88;;;10.00;99.90;;;;;;5021617;28;20038;-62
2023/03/23 03:12:56;;;;;;;12.55;11.20;;;10.00;99.90;;;;;;5016988;28;20022;-60
2023/03/23 03:15:55;;;;;;;13.75;10.32;;;10.00;99.90;;;;;;5012712;28;20061;-60
2023/03/23 03:18:51;;;;;;;12.88;11.18;;;10.00;99.90;;;;;;5017452;28;20485;-60
2023/03/23 03:21:25;;;;;;;12.95;10.75;;;10.00;99.90;;;;;;5021889;28;20056;-60
2023/03/23 03:23:55;;;;;;;12.48;11.25;;;10.00;99.90;;;;;;5020552;28;20029;-59
2023/03/23 03:26:26;;;;;;;14.27;10.70;;;10.00;99.90;;;;;;5020697;28;20026;-62
2023/03/23 03:28:53;;;;;;;13.27;11.27;;;9.90;99.90;;;;;;5015345;28;20392;-59
2023/03/23 03:31:31;;;;;;;11.95;10.38;;;9.90;99.90;;;;;;5018288;28;20038;-59
2023/03/23 03:33:57;;;;;;;11.90;10.25;;;10.00;99.90;;;;;;5014175;28;20029;-58
2023/03/23 03:36:34;;;;;;;12.07;10.82;;;9.90;99.90;;;;;;5023342;28;20030;-59
2023/03/23 03:39:07;;;;;;;12.52;10.95;;;9.90;99.90;;;;;;5011426;28;20033;-60
2023/03/23 03:41:33;;;;;;;10.95;9.77;;;9.90;99.90;;;;;;5023290;28;20037;-59
2023/03/23 03:43:59;;;;;;;11.82;10.63;;;9.90;99.90;;;;;;5019186;28;20026;-61
2023/03/23 03:46:26;;;;;;;12.95;10.25;;;9.90;99.90;;;;;;5015604;28;20103;-61
2023/03/23 03:48:52;;;;;;;14.95;10.90;;;9.90;99.90;;;;;;5016736;28;20387;-62
2023/03/23 03:51:18;;;;;;;15.20;10.93;;;9.90;99.90;;;;;;5022381;28;20067;-61
2023/03/23 03:53:44;;;;;;;12.00;10.05;;;9.90;99.90;;;;;;5019548;28;20072;-60
2023/03/23 03:56:09;;;;;;;15.63;11.30;;;9.90;99.90;;;;;;5017526;28;20030;-59
2023/03/23 03:58:36;;;;;;;11.73;10.55;;;9.90;99.90;;;;;;5015821;28;20033;-59
2023/03/23 04:01:03;;;;;;;13.02;11.27;;;9.90;99.90;;;;;;5016562;28;20029;-62
2023/03/23 04:03:28;;;;;;;14.73;11.93;;;10.00;99.90;;;;;;5023201;28;20403;-61
2023/03/23 04:05:55;;;;;;;12.65;11.32;;;10.00;99.90;;;;;;5019304;28;20029;-59
2023/03/23 04:08:26;;;;;;;13.73;12.25;;;10.00;99.90;;;;;;5017182;28;20541;-61
2023/03/23 04:10:53;;;;;;;13.98;11.05;;;10.00;99.90;;;;;;5019182;28;20024;-58
2023/03/23 04:13:19;;;;;;;14.35;12.30;;;10.00;99.90;;;;;;5014268;28;20504;-61
2023/03/23 04:15:45;;;;;;;12.05;10.82;;;10.00;99.90;;;;;;5015487;28;20183;-62
2023/03/23 04:18:12;;;;;;;17.35;11.52;;;10.00;99.90;;;;;;5015981;28;20040;-61
2023/03/23 04:20:39;;;;;;;15.10;12.02;;;10.00;99.90;;;;;;5026889;28;20547;-60
2023/03/23 04:23:05;;;;;;;17.27;11.70;;;10.00;99.90;;;;;;5014831;28;20555;-60
2023/03/23 04:25:32;;;;;;;12.32;11.13;;;10.00;99.90;;;;;;5017207;28;20104;-61
2023/03/23 04:28:01;;;;;;;12.45;11.15;;;10.00;99.90;;;;;;5013304;28;20026;-62
2023/03/23 04:30:30;;;;;;;15.38;11.60;;;10.00;99.90;;;;;;5018237;28;20034;-60
2023/03/23 04:32:56;;;;;;;11.95;10.20;;;10.00;99.90;;;;;;5016311;28;20488;-60
2023/03/23 04:35:25;;;;;;;15.55;11.30;;;10.00;99.90;;;;;;5017971;28;20111;-60
2023/03/23 04:37:51;;;;;;;13.40;10.73;;;10.00;99.90;;;;;;5008705;28;20025;-60
2023/03/23 04:40:18;;;;;;;14.43;11.27;;;10.00;99.90;;;;;;5017845;28;20201;-59
2023/03/23 04:42:47;;;;;;;12.50;10.98;;;10.00;99.90;;;;;;5005391;28;20038;-58
2023/03/23 04:45:15;;;;;;;12.75;11.43;;;10.00;99.90;;;;;;5014173;28;20017;-59
2023/03/23 04:47:42;;;;;;;15.30;11.70;;;10.10;99.90;;;;;;5012570;28;20029;-59
2023/03/23 04:50:10;;;;;;;12.50;11.25;;;10.10;99.90;;;;;;5018615;28;20083;-61
2023/03/23 04:52:37;;;;;;;14.45;12.10;;;10.10;99.90;;;;;;5021202;28;20419;-59
2023/03/23 04:55:05;;;;;;;14.35;11.15;;;10.10;99.90;;;;;;5011642;28;20029;-60
2023/03/23 04:57:31;;;;;;;12.63;10.65;;;10.10;99.90;;;;;;5019068;28;20038;-59
2023/03/23 04:59:57;;;;;;;13.05;10.80;;;10.00;99.90;;;;;;5022663;28;20025;-61
2023/03/23 05:02:23;;;;;;;13.88;10.85;;;10.00;99.90;;;;;;5016447;28;20559;-59
2023/03/23 05:04:48;;;;;;;13.20;11.80;;;10.00;99.90;;;;;;5013615;28;20071;-62
2023/03/23 05:07:15;;;;;;;12.50;10.80;;;10.00;99.90;;;;;;5019319;28;20049;-62
2023/03/23 05:09:41;;;;;;;14.23;10.77;;;10.00;99.90;;;;;;5020976;28;20037;-62
2023/03/23 05:12:08;;;;;;;12.13;10.20;;;10.00;99.90;;;;;;5015301;28;20037;-63
2023/03/23 05:14:34;;;;;;;13.75;11.13;;;10.00;99.90;;;;;;5018242;28;20037;-59
2023/03/23 05:17:00;;;;;;;15.45;12.00;;;10.00;99.90;;;;;;5019161;28;20155;-60
2023/03/23 05:19:27;;;;;;;14.23;11.38;;;10.00;99.90;;;;;;5018675;28;20030;-59
2023/03/23 05:21:53;;;;;;;12.18;10.88;;;10.00;99.90;;;;;;5023399;28;20044;-61
2023/03/23 05:24:19;;;;;;;12.70;11.40;;;10.00;99.90;;;;;;5020405;28;20216;-59
2023/03/23 05:26:48;;;;;;;12.93;11.13;;;10.00;99.90;;;;;;5031427;28;20591;-61
2023/03/23 05:29:14;;;;;;;13.95;11.73;;;10.00;99.90;;;;;;5011097;28;20026;-60
2023/03/23 05:31:39;;;;;;;14.68;12.13;;;10.00;99.90;;;;;;5021333;28;20536;-58
2023/03/23 05:34:05;;;;;;;13.52;11.93;;;10.00;99.90;;;;;;5022579;28;20040;-60
2023/03/23 05:36:31;;;;;;;15.68;12.85;;;10.10;99.90;;;;;;5016049;28;20033;-60
2023/03/23 05:38:59;;;;;;;14.52;11.63;;;10.10;99.90;;;;;;5013286;28;20024;-57
2023/03/23 05:41:25;;;;;;;12.65;11.45;;;10.10;99.90;;;;;;5018871;28;20401;-60
2023/03/23 05:43:51;;;;;;;13.63;12.23;;;10.10;99.90;;;;;;5014347;28;20301;-57
2023/03/23 05:46:17;;;;;;;17.30;13.10;;;10.10;99.90;;;;;;5020916;28;20245;-59
2023/03/23 05:48:43;;;;;;;14.20;12.05;;;10.10;99.90;;;;;;5018254;28;20043;-63
2023/03/23 05:51:09;;;;;;;15.70;12.40;;;10.10;99.90;;;;;;5020530;28;20369;-62
2023/03/23 05:53:35;;;;;;;15.20;11.60;;;10.10;99.90;;;;;;5019968;28;20095;-63
2023/03/23 05:56:01;;;;;;;13.35;11.90;;;10.10;99.90;;;;;;5016118;28;20050;-58
2023/03/23 05:58:27;;;;;;;15.85;11.10;;;10.10;99.90;;;;;;5012575;28;20034;-60
2023/03/23 06:00:53;;;;;;;13.05;11.63;;;10.10;99.90;;;;;;5012586;28;20380;-60
2023/03/23 06:03:19;;;;;;;12.52;11.15;;;10.10;99.90;;;;;;5015032;28;20487;-59
2023/03/23 06:05:45;;;;;;;11.80;10.60;;;10.10;99.90;;;;;;5015845;28;20112;-59
2023/03/23 06:08:11;;;;;;;12.25;10.88;;;10.10;99.90;;;;;;5019939;28;20520;-60
2023/03/23 06:10:37;;;;;;;12.82;10.20;;;10.10;99.90;;;;;;5019070;28;20099;-61
2023/03/23 06:13:03;;;;;;;12.50;10.20;;;10.10;99.90;;;;;;5019981;28;20487;-62
2023/03/23 06:15:31;;;;;;;12.73;10.15;;;10.00;99.90;;;;;;5015938;28;20088;-59
2023/03/23 06:18:03;;;;;;;11.93;9.48;;;10.00;99.90;;;;;;5010296;28;20546;-62
2023/03/23 06:20:30;;;;;;;10.10;9.00;;;10.10;99.90;;;;;;5017929;28;20029;-57
2023/03/23 06:22:56;;;;;;;11.95;9.07;;;10.00;99.90;;;;;;5019990;28;20130;-60
2023/03/23 06:25:22;;;;;;;11.45;9.13;;;10.00;99.90;;;;;;5024116;28;20018;-60
2023/03/23 06:27:48;;;;;;;11.77;9.77;;;10.00;99.90;;;;;;5020326;28;20037;-60
2023/03/23 06:30:14;;;;;;;12.73;9.75;;;10.00;99.90;;;;;;5015621;28;20388;-59
2023/03/23 06:32:41;;;;;;;9.65;8.23;;;10.00;99.90;;;;;;5019226;28;20025;-60
2023/03/23 06:35:09;;;;;;;9.00;8.10;;;10.00;99.90;;;;;;5021558;28;20018;-61
2023/03/23 06:37:36;;;;;;;9.20;8.27;;;10.00;99.90;;;;;;5023754;28;20026;-56
2023/03/23 06:40:03;;;;;;;9.18;8.15;;;10.00;99.90;;;;;;5018664;28;20068;-61
2023/03/23 06:42:29;;;;;;;10.05;7.88;;;10.10;99.90;;;;;;5010968;28;20046;-60
2023/03/23 06:44:57;;;;;;;11.32;7.95;;;10.10;99.90;;;;;;5023926;28;20527;-58
2023/03/23 06:47:23;;;;;;;8.70;7.25;;;10.20;99.90;;;;;;5015021;28;20065;-54
2023/03/23 06:49:49;;;;;;;8.45;7.35;;;10.20;99.90;;;;;;5023824;28;20462;-52
2023/03/23 06:52:14;;;;;;;8.88;7.50;;;10.30;99.90;;;;;;5021256;28;20338;-58
2023/03/23 06:54:40;;;;;;;10.13;7.10;;;10.30;99.90;;;;;;5019173;28;20117;-60
2023/03/23 06:57:07;;;;;;;9.43;7.05;;;10.40;99.90;;;;;;5014102;28;20026;-60
2023/03/23 06:59:32;;;;;;;8.02;6.80;;;10.40;99.90;;;;;;5018687;28;20030;-56
2023/03/23 07:01:58;;;;;;;7.82;6.75;;;10.50;99.90;;;;;;5023272;28;20029;-63
2023/03/23 07:04:23;;;;;;;10.50;6.55;;;10.50;99.90;;;;;;5019318;28;20105;-54
2023/03/23 07:06:49;;;;;;;8.27;6.82;;;10.50;99.90;;;;;;5027150;28;20092;-58
2023/03/23 07:09:15;;;;;;;9.32;6.97;;;10.60;99.90;;;;;;5014082;28;20026;-56
2023/03/23 07:11:41;;;;;;;8.25;6.38;;;10.60;99.90;;;;;;5017560;28;20443;-59
2023/03/23 07:14:06;;;;;;;6.97;5.95;;;10.70;99.90;;;;;;5017752;28;20025;-57
2023/03/23 07:16:32;;;;;;;6.45;5.65;;;10.70;99.90;;;;;;5017989;28;20265;-61
2023/03/23 07:18:59;;;;;;;7.85;6.15;;;10.80;99.90;;;;;;5019733;28;20033;-57
2023/03/23 07:21:25;;;;;;;6.22;5.63;;;10.80;99.90;;;;;;5022745;28;20026;-57
2023/03/23 07:23:51;;;;;;;6.70;5.90;;;10.90;99.90;;;;;;5022882;28;20020;-54
2023/03/23 07:26:17;;;;;;;5.63;5.10;;;10.90;99.90;;;;;;5018763;28;20022;-57
2023/03/23 07:28:43;;;;;;;7.50;5.30;;;10.90;99.90;;;;;;5023125;28;20022;-59
2023/03/23 07:31:09;;;;;;;6.03;5.13;;;11.00;99.90;;;;;;5024994;28;20168;-55
2023/03/23 07:33:35;;;;;;;5.60;4.78;;;11.00;99.90;;;;;;5020751;28;20207;-59
2023/03/23 07:36:02;;;;;;;8.05;4.72;;;11.00;99.90;;;;;;5030157;28;20044;-58
2023/03/23 07:38:28;;;;;;;7.57;5.35;;;11.00;99.90;;;;;;5023179;28;20030;-56
2023/03/23 07:40:54;;;;;;;5.57;4.40;;;11.00;99.90;;;;;;5031635;28;20033;-55
2023/03/23 07:43:20;;;;;;;5.15;4.40;;;11.00;99.90;;;;;;5013957;28;20454;-58
2023/03/23 07:45:46;;;;;;;5.88;5.18;;;10.90;99.90;;;;;;5027037;28;20033;-59
2023/03/23 07:48:12;;;;;;;6.97;5.93;;;10.90;99.90;;;;;;5024086;28;20393;-58
2023/03/23 07:50:38;;;;;;;5.43;4.80;;;10.90;99.90;;;;;;5026723;28;20374;-57
2023/03/23 07:53:04;;;;;;;5.40;4.70;;;10.90;99.90;;;;;;5026431;28;20510;-55
2023/03/23 07:55:29;;;;;;;6.50;5.68;;;10.80;99.90;;;;;;5021857;28;20076;-59
2023/03/23 07:57:55;;;;;;;8.13;4.78;;;10.70;99.90;;;;;;5027325;28;20075;-59
2023/03/23 08:00:23;;;;;;;8.95;4.70;;;10.70;99.90;;;;;;5023125;28;20391;-59
2023/03/23 08:02:52;;;;;;;7.80;5.60;;;10.70;99.90;;;;;;5027668;28;20411;-60
2023/03/23 08:05:18;;;;;;;10.20;6.18;;;10.60;99.90;;;;;;5017891;28;20113;-59
2023/03/23 08:07:44;;;;;;;6.80;4.00;;;10.60;99.90;;;;;;5027664;28;20503;-60
2023/03/23 08:10:12;;;;;;;5.57;3.22;;;10.50;99.90;;;;;;5019935;28;20403;-61
2023/03/23 08:12:39;;;;;;;4.85;2.75;;;10.40;99.90;;;;;;5020808;28;20053;-59
2023/03/23 08:15:06;;;;;;;6.65;2.67;;;10.40;99.90;;;;;;5021550;28;20025;-60
2023/03/23 08:17:34;;;;;;;3.08;1.98;;;10.30;99.90;;;;;;5017306;28;20026;-62
2023/03/23 08:20:00;;;;;;;4.85;1.42;;;10.20;99.90;;;;;;5027365;28;20100;-57
2023/03/23 08:22:26;;;;;;;5.15;1.90;;;10.10;99.90;;;;;;5018300;28;20065;-59
2023/03/23 08:24:52;;;;;;;3.80;1.83;;;10.10;99.90;;;;;;5012353;28;20017;-58
2023/03/23 08:27:18;;;;;;;2.13;0.73;;;10.10;99.90;;;;;;5018963;28;20025;-60
2023/03/23 08:29:47;;;;;;;5.05;1.35;;;10.00;99.90;;;;;;5019955;28;20018;-59
2023/03/23 08:32:14;;;;;;;1.27;0.80;;;10.00;99.90;;;;;;5020716;28;20374;-59
2023/03/23 08:34:41;;;;;;;1.42;1.10;;;10.00;99.90;;;;;;5019455;28;20022;-58
2023/03/23 08:37:07;;;;;;;2.22;1.42;;;10.00;99.90;;;;;;5022892;28;20033;-61
2023/03/23 08:39:33;;;;;;;1.00;1.00;;;10.00;99.90;;;;;;5021507;28;20021;-60
2023/03/23 08:41:59;;;;;;;1.42;1.15;;;10.00;99.90;;;;;;5022855;28;20040;-60
2023/03/23 08:44:24;;;;;;;3.08;1.30;;;10.00;99.90;;;;;;5024541;28;20040;-58
2023/03/23 08:46:56;;;;;;;1.85;1.30;;;10.00;99.90;;;;;;5023095;28;20067;-59
2023/03/23 08:49:23;;;;;;;1.45;1.35;;;10.00;99.90;;;;;;5022421;28;20021;-56
2023/03/23 08:51:49;;;;;;;3.20;1.17;;;10.10;99.90;;;;;;5024702;28;20026;-61
2023/03/23 08:54:15;;;;;;;2.47;1.70;;;10.10;99.90;;;;;;5019592;28;20022;-57
2023/03/23 08:56:41;;;;;;;3.88;1.73;;;10.20;99.90;;;;;;5026877;28;20537;-60
2023/03/23 08:59:07;;;;;;;2.00;1.20;;;10.20;99.90;;;;;;5019561;28;20036;-61
2023/03/23 09:01:33;;;;;;;6.97;1.60;;;10.30;99.90;;;;;;5026337;28;20034;-61
2023/03/23 09:03:59;;;;;;;4.38;1.63;;;10.40;99.90;;;;;;5017339;28;20072;-59
2023/03/23 09:06:25;;;;;;;4.68;2.35;;;10.50;99.90;;;;;;5017817;28;20033;-57
2023/03/23 09:08:51;;;;;;;3.55;1.92;;;10.50;99.90;;;;;;5014521;28;20025;-59
2023/03/23 09:11:16;;;;;;;3.05;1.73;;;10.60;99.90;;;;;;5010425;28;20033;-60
2023/03/23 09:13:42;;;;;;;4.85;2.00;;;10.60;99.90;;;;;;5024892;28;20076;-60
2023/03/23 09:16:08;;;;;;;4.82;1.88;;;10.60;99.90;;;;;;5020189;28;20136;-60
2023/03/23 09:18:34;;;;;;;4.70;2.40;;;10.70;99.90;;;;;;5018879;28;20026;-56
2023/03/23 09:21:01;;;;;;;1.70;1.50;;;10.70;99.90;;;;;;5021989;28;20033;-60
2023/03/23 09:23:27;;;;;;;4.88;2.13;;;10.70;99.90;;;;;;5019673;28;20431;-57
2023/03/23 09:25:53;;;;;;;4.93;1.98;;;10.70;99.90;;;;;;5024601;28;20028;-60
2023/03/23 09:28:19;;;;;;;4.57;1.92;;;11.00;99.90;;;;;;5010502;28;20030;-60
2023/03/23 09:30:47;;;;;;;4.90;2.55;;;11.10;99.90;;;;;;5025101;28;20033;-58
2023/03/23 09:33:13;;;;;;;2.55;1.85;;;11.20;99.90;;;;;;5018468;28;20034;-58
2023/03/23 09:35:38;;;;;;;5.25;2.45;;;11.20;99.90;;;;;;5026768;28;20412;-58
2023/03/23 09:38:05;;;;;;;5.15;2.50;;;11.20;99.90;;;;;;5021529;28;20126;-58
2023/03/23 09:40:48;;;;;;;6.20;2.00;;;11.20;99.90;;;;;;5018111;28;20029;-61
2023/03/23 09:43:39;;;;;;;5.30;2.40;;;11.30;99.90;;;;;;5012228;28;20416;-58
2023/03/23 09:46:27;;;;;;;3.35;2.45;;;11.50;99.90;;;;;;5023023;28;20022;-59
2023/03/23 09:48:56;;;;;;;4.70;2.60;;;11.80;99.90;;;;;;5018148;28;20021;-59
2023/03/23 09:51:40;;;;;;;6.53;2.35;;;12.00;99.90;;;;;;5026453;28;20020;-61
2023/03/23 09:54:19;;;;;;;8.90;2.70;;;12.10;99.90;;;;;;5013733;28;20484;-57
2023/03/23 09:56:46;;;;;;;6.75;2.47;;;12.20;99.90;;;;;;5020162;28;20034;-53
2023/03/23 09:59:27;;;;;;;6.03;2.17;;;12.40;99.90;;;;;;5015692;28;20040;-56
2023/03/23 10:02:02;;;;;;;11.40;3.10;;;12.60;99.90;;;;;;5006895;28;20037;-57
2023/03/23 10:04:43;;;;;;;6.03;1.88;;;12.80;99.90;;;;;;5014301;28;20026;-57
2023/03/23 10:07:16;;;;;;;5.82;2.10;;;12.90;99.90;;;;;;5028121;28;20111;-57
2023/03/23 10:09:45;;;;;;;7.90;2.10;;;13.00;99.90;;;;;;5020006;28;20030;-59
2023/03/23 10:12:36;;;;;;;6.28;2.38;;;13.10;99.90;;;;;;5021127;28;20029;-55
2023/03/23 10:15:16;;;;;;;6.43;1.63;;;13.20;99.90;;;;;;5011327;28;20021;-59
2023/03/23 10:17:52;;;;;;;7.35;2.20;;;13.20;99.90;;;;;;5015557;28;20038;-59
2023/03/23 10:20:41;;;;;;;6.60;1.80;;;13.20;99.90;;;;;;5025636;28;20315;-57
2023/03/23 10:23:19;;;;;;;6.35;1.67;;;13.30;99.90;;;;;;5011059;28;20609;-63
2023/03/23 10:25:59;;;;;;;8.65;2.38;;;13.30;99.90;;;;;;5021444;28;20022;-57
2023/03/23 10:28:40;;;;;;;6.50;2.05;;;13.30;99.90;;;;;;5016682;28;20099;-56
2023/03/23 10:31:12;;;;;;;11.50;2.22;;;13.50;99.90;;;;;;5019794;28;20030;-61
2023/03/23 10:33:45;;;;;;;4.90;1.92;;;13.60;99.90;;;;;;5019037;28;20045;-58
2023/03/23 10:36:26;;;;;;;7.65;1.45;;;13.70;99.90;;;;;;5017106;28;20033;-61
2023/03/23 10:39:00;;;;;;;6.03;2.40;;;13.70;99.90;;;;;;5014740;28;20029;-56
2023/03/23 10:41:26;;;;;;;9.27;2.03;;;13.60;99.90;;;;;;5014532;28;20096;-54
2023/03/23 10:43:54;;;;;;;6.30;1.38;;;13.50;99.90;;;;;;5009556;28;20030;-56
2023/03/23 10:46:22;;;;;;;4.43;2.38;;;13.40;99.90;;;;;;5009051;28;20033;-57
2023/03/23 10:48:49;;;;;;;4.85;2.15;;;13.40;99.90;;;;;;5007592;28;20080;-53
2023/03/23 10:51:20;;;;;;;7.28;2.03;;;13.40;99.90;;;;;;5009974;28;20022;-58
2023/03/23 10:53:50;;;;;;;3.85;1.63;;;13.30;99.90;;;;;;5014840;28;20092;-62
2023/03/23 10:56:25;;;;;;;7.38;2.42;;;13.20;99.90;;;;;;5018151;28;20026;-57
2023/03/23 10:58:52;;;;;;;6.20;1.58;;;13.20;99.90;;;;;;5016225;28;20029;-55
2023/03/23 11:01:32;;;;;;;4.82;1.30;;;13.10;99.90;;;;;;5015574;28;20077;-59
2023/03/23 11:04:00;;;;;;;5.40;1.55;;;13.00;99.90;;;;;;5015760;28;20021;-53
2023/03/23 11:06:35;;;;;;;7.47;2.60;;;13.00;99.90;;;;;;5022244;28;20484;-59
2023/03/23 11:09:12;;;;;;;9.75;2.17;;;13.00;99.90;;;;;;5024108;28;20084;-56
2023/03/23 11:11:43;;;;;;;9.73;2.42;;;13.00;99.90;;;;;;5022769;28;20054;-57
2023/03/23 11:14:28;;;;;;;6.07;1.50;;;13.00;99.90;;;;;;5018441;28;20068;-53
2023/03/23 11:17:00;;;;;;;7.13;2.40;;;13.00;99.90;;;;;;5014322;28;20315;-56
2023/03/23 11:19:37;;;;;;;5.38;1.75;;;13.00;99.90;;;;;;5016189;28;20029;-59
2023/03/23 11:22:04;;;;;;;5.72;1.88;;;13.00;99.90;;;;;;5010921;28;20104;-56
2023/03/23 11:24:33;;;;;;;10.70;2.20;;;13.00;99.90;;;;;;5020121;28;20045;-60
2023/03/23 11:27:00;;;;;;;8.20;2.28;;;12.90;99.90;;;;;;5025198;28;20022;-54
2023/03/23 11:29:28;;;;;;;6.50;1.80;;;12.90;99.90;;;;;;5010108;28;20026;-58
2023/03/23 11:32:09;;;;;;;3.08;1.30;;;12.90;99.90;;;;;;5002462;28;20030;-55
2023/03/23 11:34:47;;;;;;;7.50;2.05;;;12.90;99.90;;;;;;5018476;28;20021;-57
2023/03/23 11:37:33;;;;;;;8.60;2.55;;;12.80;99.90;;;;;;5024036;28;20033;-60
2023/03/23 11:40:04;;;;;;;9.45;2.72;;;12.80;99.90;;;;;;5023174;28;20029;-58
2023/03/23 11:43:00;;;;;;;11.25;2.20;;;12.80;99.90;;;;;;5017291;28;20033;-59
2023/03/23 11:45:32;;;;;;;6.72;2.13;;;13.00;99.90;;;;;;5015864;28;20080;-58
2023/03/23 11:48:01;;;;;;;10.70;2.78;;;13.10;99.90;;;;;;5018629;28;20089;-58
2023/03/23 11:50:32;;;;;;;9.98;2.75;;;13.30;99.90;;;;;;5017694;28;20018;-58
2023/03/23 11:53:27;;;;;;;5.70;2.28;;;13.30;99.90;;;;;;5026375;28;20036;-58
2023/03/23 11:55:57;;;;;;;8.02;2.17;;;13.30;99.90;;;;;;5029113;28;20021;-56
2023/03/23 11:58:23;;;;;;;11.25;3.17;;;13.40;99.90;;;;;;5027065;28;20032;-58
2023/03/23 12:00:52;;;;;;;7.85;1.80;;;13.50;99.90;;;;;;5022718;28;20499;-56
2023/03/23 12:03:52;;;;;;;5.22;1.67;;;13.50;99.90;;;;;;5027914;28;20025;-56
2023/03/23 12:06:33;;;;;;;10.57;2.28;;;13.50;99.90;;;;;;4968312;28;20088;-56
2023/03/23 12:09:34;;;;;;;9.50;2.85;;;13.40;99.90;;;;;;5018599;28;20021;-57
2023/03/23 12:12:17;;;;;;;13.25;3.20;;;13.40;99.90;;;;;;5017200;28;20026;-54
2023/03/23 12:14:55;;;;;;;9.10;2.58;;;13.30;99.90;;;;;;5025244;28;20116;-56
2023/03/23 12:17:48;;;;;;;10.65;3.08;;;13.20;99.90;;;;;;5023078;28;20033;-57
2023/03/23 12:20:32;;;;;;;17.13;2.70;;;13.20;99.90;;;;;;5018066;28;20462;-58
2023/03/23 12:23:16;;;;;;;8.85;1.40;;;13.20;99.90;;;;;;5022914;28;20017;-57
2023/03/23 12:25:56;;;;;;;10.23;2.67;;;13.20;99.90;;;;;;5028297;28;20031;-57
2023/03/23 12:28:57;;;;;;;11.57;2.90;;;13.20;99.90;;;;;;5016123;28;20026;-57
2023/03/23 12:31:47;;;;;;;5.30;1.80;;;13.20;99.90;;;;;;5014015;28;20130;-57
2023/03/23 12:34:22;;;;;;;10.85;2.50;;;13.20;99.90;;;;;;5013875;28;20044;-56
2023/03/23 12:36:53;;;;;;;9.95;2.85;;;13.10;99.90;;;;;;5018630;28;20026;-57
2023/03/23 12:40:01;;;;;;;8.15;2.00;;;13.10;99.90;;;;;;5017167;28;20030;-58
2023/03/23 12:42:43;;;;;;;9.05;2.25;;;13.10;99.90;;;;;;5006930;28;20509;-60
2023/03/23 12:45:38;;;;;;;6.55;2.08;;;13.20;99.90;;;;;;5018486;28;20064;-56
2023/03/23 12:48:13;;;;;;;7.32;2.33;;;13.30;99.90;;;;;;5014828;28;20036;-59
2023/03/23 12:50:46;;;;;;;6.80;2.22;;;13.40;99.90;;;;;;5021006;28;20129;-57
2023/03/23 12:53:23;;;;;;;6.32;1.52;;;13.40;99.90;;;;;;5018302;28;20481;-56
2023/03/23 12:56:08;;;;;;;8.35;2.90;;;13.40;99.90;;;;;;5019791;28;20029;-57
2023/03/23 12:58:40;;;;;;;6.38;2.40;;;13.40;99.90;;;;;;5016318;28;20070;-58